sensor_id;sensor_type;location;lat;lon;timestamp;temperature;humidity
20182;DHT22;10250;50.756;6.172;2023-04-24T00:01:49;12.70;99.90
20182;DHT22;10250;50.756;6.172;2023-04-24T00:03:50;12.60;99.90
20182;DHT22;10250;50.756;6.172;2023-04-24T00:05:51;12.60;99.90
20182;DHT22;10250;50.756;6.172;2023-04-24T00:07:52;12.70;99.90
20182;DHT22;10250;50.756;6.172;2023-04-24T00:09:53;12.50;99.90
20182;DHT22;10250;50.756;6.172;2023-04-24T00:11:53;12.50;96.20
20182;DHT22;10250;50.756;6.172;2023-04-24T00:13:54;12.50;79.50
20182;DHT22;10250;50.756;6.172;2023-04-24T00:15:55;12.40;91.70
20182;DHT22;10250;50.756;6.172;2023-04-24T00:17:56;12.40;92.30
20182;DHT22;10250;50.756;6.172;2023-04-24T00:19:57;12.40;92.70
20182;DHT22;10250;50.756;6.172;2023-04-24T00:22:02;12.20;90.90
20182;DHT22;10250;50.756;6.172;2023-04-24T00:24:03;12.10;77.10
20182;DHT22;10250;50.756;6.172;2023-04-24T00:26:04;12.20;99.90
20182;DHT22;10250;50.756;6.172;2023-04-24T00:28:04;12.20;87.80
20182;DHT22;10250;50.756;6.172;2023-04-24T00:30:05;12.20;84.20
20182;DHT22;10250;50.756;6.172;2023-04-24T00:32:06;12.30;95.70
20182;DHT22;10250;50.756;6.172;2023-04-24T00:34:07;12.30;96.50
20182;DHT22;10250;50.756;6.172;2023-04-24T00:36:08;12.30;78.30
20182;DHT22;10250;50.756;6.172;2023-04-24T00:38:08;12.30;81.40
20182;DHT22;10250;50.756;6.172;2023-04-24T00:40:09;12.20;79.60
20182;DHT22;10250;50.756;6.172;2023-04-24T00:42:10;12.20;75.50
20182;DHT22;10250;50.756;6.172;2023-04-24T00:44:11;12.00;68.80
20182;DHT22;10250;50.756;6.172;2023-04-24T00:46:12;12.10;67.80
20182;DHT22;10250;50.756;6.172;2023-04-24T00:48:14;12.10;79.70
20182;DHT22;10250;50.756;6.172;2023-04-24T00:50:15;12.00;69.10
20182;DHT22;10250;50.756;6.172;2023-04-24T00:52:16;11.80;65.00
20182;DHT22;10250;50.756;6.172;2023-04-24T00:54:18;11.80;72.30
20182;DHT22;10250;50.756;6.172;2023-04-24T00:56:18;11.80;97.30
20182;DHT22;10250;50.756;6.172;2023-04-24T00:58:20;11.70;77.90
20182;DHT22;10250;50.756;6.172;2023-04-24T01:00:21;11.80;81.90
20182;DHT22;10250;50.756;6.172;2023-04-24T01:02:22;11.80;76.10
20182;DHT22;10250;50.756;6.172;2023-04-24T01:04:24;11.70;90.60
20182;DHT22;10250;50.756;6.172;2023-04-24T01:06:28;11.70;71.50
20182;DHT22;10250;50.756;6.172;2023-04-24T01:08:29;11.80;73.10
20182;DHT22;10250;50.756;6.172;2023-04-24T01:10:31;11.60;72.50
20182;DHT22;10250;50.756;6.172;2023-04-24T01:12:33;11.70;91.10
20182;DHT22;10250;50.756;6.172;2023-04-24T01:14:33;11.80;95.40
20182;DHT22;10250;50.756;6.172;2023-04-24T01:16:34;11.80;84.10
20182;DHT22;10250;50.756;6.172;2023-04-24T01:18:36;11.90;83.10
20182;DHT22;10250;50.756;6.172;2023-04-24T01:20:40;11.80;76.30
20182;DHT22;10250;50.756;6.172;2023-04-24T01:22:40;11.70;83.80
20182;DHT22;10250;50.756;6.172;2023-04-24T01:24:42;11.70;90.10
20182;DHT22;10250;50.756;6.172;2023-04-24T01:26:43;11.80;86.60
20182;DHT22;10250;50.756;6.172;2023-04-24T01:28:43;11.80;77.60
20182;DHT22;10250;50.756;6.172;2023-04-24T01:30:44;11.80;71.80
20182;DHT22;10250;50.756;6.172;2023-04-24T01:32:45;11.70;82.30
20182;DHT22;10250;50.756;6.172;2023-04-24T01:34:47;11.80;83.00
20182;DHT22;10250;50.756;6.172;2023-04-24T01:36:48;11.90;80.60
20182;DHT22;10250;50.756;6.172;2023-04-24T01:38:49;11.80;75.40
20182;DHT22;10250;50.756;6.172;2023-04-24T01:40:50;12.00;82.60
20182;DHT22;10250;50.756;6.172;2023-04-24T01:42:51;11.90;71.80
20182;DHT22;10250;50.756;6.172;2023-04-24T01:44:52;11.80;72.80
20182;DHT22;10250;50.756;6.172;2023-04-24T01:46:55;11.90;78.00
20182;DHT22;10250;50.756;6.172;2023-04-24T01:48:55;11.70;62.70
20182;DHT22;10250;50.756;6.172;2023-04-24T01:50:57;11.70;84.30
20182;DHT22;10250;50.756;6.172;2023-04-24T01:52:57;11.90;80.90
20182;DHT22;10250;50.756;6.172;2023-04-24T01:55:00;11.80;74.70
20182;DHT22;10250;50.756;6.172;2023-04-24T01:57:00;11.70;94.00
20182;DHT22;10250;50.756;6.172;2023-04-24T01:59:03;11.70;99.90
20182;DHT22;10250;50.756;6.172;2023-04-24T02:01:05;11.80;99.90
20182;DHT22;10250;50.756;6.172;2023-04-24T02:03:06;11.80;99.90
20182;DHT22;10250;50.756;6.172;2023-04-24T02:05:08;11.80;99.90
20182;DHT22;10250;50.756;6.172;2023-04-24T02:07:09;11.90;99.90
20182;DHT22;10250;50.756;6.172;2023-04-24T02:09:09;12.00;99.90
20182;DHT22;10250;50.756;6.172;2023-04-24T02:11:11;11.60;99.90
20182;DHT22;10250;50.756;6.172;2023-04-24T02:13:11;11.70;92.30
20182;DHT22;10250;50.756;6.172;2023-04-24T02:15:12;11.60;99.90
20182;DHT22;10250;50.756;6.172;2023-04-24T02:17:12;11.80;99.90
20182;DHT22;10250;50.756;6.172;2023-04-24T02:19:15;11.70;92.70
20182;DHT22;10250;50.756;6.172;2023-04-24T02:21:16;11.60;90.50
20182;DHT22;10250;50.756;6.172;2023-04-24T02:23:16;11.50;97.30
20182;DHT22;10250;50.756;6.172;2023-04-24T02:25:17;11.50;98.20
20182;DHT22;10250;50.756;6.172;2023-04-24T02:27:17;11.70;99.90
20182;DHT22;10250;50.756;6.172;2023-04-24T02:29:18;11.70;97.60
20182;DHT22;10250;50.756;6.172;2023-04-24T02:31:19;11.60;97.20
20182;DHT22;10250;50.756;6.172;2023-04-24T02:33:19;11.70;99.90
20182;DHT22;10250;50.756;6.172;2023-04-24T02:35:20;11.70;99.50
20182;DHT22;10250;50.756;6.172;2023-04-24T02:37:20;11.70;99.70
20182;DHT22;10250;50.756;6.172;2023-04-24T02:39:21;11.70;99.90
20182;DHT22;10250;50.756;6.172;2023-04-24T02:41:22;11.60;99.90
20182;DHT22;10250;50.756;6.172;2023-04-24T02:43:22;11.60;99.90
20182;DHT22;10250;50.756;6.172;2023-04-24T02:45:23;11.50;99.90
20182;DHT22;10250;50.756;6.172;2023-04-24T02:47:23;11.60;99.90
20182;DHT22;10250;50.756;6.172;2023-04-24T02:49:24;11.70;99.90
20182;DHT22;10250;50.756;6.172;2023-04-24T02:51:26;11.90;99.90
20182;DHT22;10250;50.756;6.172;2023-04-24T02:53:27;11.90;99.90
20182;DHT22;10250;50.756;6.172;2023-04-24T02:55:27;11.90;99.90
20182;DHT22;10250;50.756;6.172;2023-04-24T02:57:28;11.70;99.90
20182;DHT22;10250;50.756;6.172;2023-04-24T02:59:28;11.60;89.30
20182;DHT22;10250;50.756;6.172;2023-04-24T03:01:29;11.50;93.40
20182;DHT22;10250;50.756;6.172;2023-04-24T03:03:30;11.70;93.80
20182;DHT22;10250;50.756;6.172;2023-04-24T03:05:31;11.70;90.30
20182;DHT22;10250;50.756;6.172;2023-04-24T03:07:31;11.70;92.00
20182;DHT22;10250;50.756;6.172;2023-04-24T03:09:32;11.70;98.90
20182;DHT22;10250;50.756;6.172;2023-04-24T03:11:33;11.70;94.80
20182;DHT22;10250;50.756;6.172;2023-04-24T03:13:33;11.80;92.00
20182;DHT22;10250;50.756;6.172;2023-04-24T03:15:34;11.70;91.10
20182;DHT22;10250;50.756;6.172;2023-04-24T03:17:35;11.70;94.50
20182;DHT22;10250;50.756;6.172;2023-04-24T03:19:35;11.50;98.80
20182;DHT22;10250;50.756;6.172;2023-04-24T03:21:36;11.60;99.90
20182;DHT22;10250;50.756;6.172;2023-04-24T03:23:40;11.70;99.90
20182;DHT22;10250;50.756;6.172;2023-04-24T03:25:41;11.70;99.90
20182;DHT22;10250;50.756;6.172;2023-04-24T03:27:43;11.70;99.90
20182;DHT22;10250;50.756;6.172;2023-04-24T03:29:43;11.60;99.90
20182;DHT22;10250;50.756;6.172;2023-04-24T03:31:44;11.70;99.90
20182;DHT22;10250;50.756;6.172;2023-04-24T03:33:44;11.60;99.90
20182;DHT22;10250;50.756;6.172;2023-04-24T03:35:45;11.50;99.90
20182;DHT22;10250;50.756;6.172;2023-04-24T03:37:45;11.50;99.90
20182;DHT22;10250;50.756;6.172;2023-04-24T03:39:46;11.50;99.90
20182;DHT22;10250;50.756;6.172;2023-04-24T03:41:47;11.60;99.90
20182;DHT22;10250;50.756;6.172;2023-04-24T03:43:47;11.60;99.90
20182;DHT22;10250;50.756;6.172;2023-04-24T03:45:48;11.60;99.90
20182;DHT22;10250;50.756;6.172;2023-04-24T03:47:48;11.50;99.90
20182;DHT22;10250;50.756;6.172;2023-04-24T03:49:49;11.50;99.90
20182;DHT22;10250;50.756;6.172;2023-04-24T03:51:50;11.60;99.90
20182;DHT22;10250;50.756;6.172;2023-04-24T03:53:51;11.60;99.90
20182;DHT22;10250;50.756;6.172;2023-04-24T03:55:52;11.40;99.90
20182;DHT22;10250;50.756;6.172;2023-04-24T03:57:52;11.40;99.90
20182;DHT22;10250;50.756;6.172;2023-04-24T03:59:53;11.30;99.90
20182;DHT22;10250;50.756;6.172;2023-04-24T04:01:54;11.40;99.90
20182;DHT22;10250;50.756;6.172;2023-04-24T04:03:54;11.30;99.90
20182;DHT22;10250;50.756;6.172;2023-04-24T04:05:55;11.40;99.90
20182;DHT22;10250;50.756;6.172;2023-04-24T04:07:55;11.40;99.90
20182;DHT22;10250;50.756;6.172;2023-04-24T04:09:56;11.40;99.90
20182;DHT22;10250;50.756;6.172;2023-04-24T04:11:57;11.40;99.90
20182;DHT22;10250;50.756;6.172;2023-04-24T04:13:57;11.40;99.90
20182;DHT22;10250;50.756;6.172;2023-04-24T04:15:58;11.30;99.90
20182;DHT22;10250;50.756;6.172;2023-04-24T04:17:58;11.30;99.90
20182;DHT22;10250;50.756;6.172;2023-04-24T04:19:59;11.50;99.90
20182;DHT22;10250;50.756;6.172;2023-04-24T04:22:00;11.40;99.90
20182;DHT22;10250;50.756;6.172;2023-04-24T04:24:00;11.50;99.90
20182;DHT22;10250;50.756;6.172;2023-04-24T04:26:02;11.50;99.90
20182;DHT22;10250;50.756;6.172;2023-04-24T04:28:03;11.40;99.90
20182;DHT22;10250;50.756;6.172;2023-04-24T04:30:04;11.30;99.90
20182;DHT22;10250;50.756;6.172;2023-04-24T04:32:05;11.20;99.90
20182;DHT22;10250;50.756;6.172;2023-04-24T04:34:06;11.30;99.90
20182;DHT22;10250;50.756;6.172;2023-04-24T04:36:08;11.40;99.90
20182;DHT22;10250;50.756;6.172;2023-04-24T04:38:09;11.30;99.90
20182;DHT22;10250;50.756;6.172;2023-04-24T04:40:11;11.20;99.90
20182;DHT22;10250;50.756;6.172;2023-04-24T04:42:12;11.30;99.90
20182;DHT22;10250;50.756;6.172;2023-04-24T04:44:13;11.30;99.90
20182;DHT22;10250;50.756;6.172;2023-04-24T04:46:15;11.30;99.90
20182;DHT22;10250;50.756;6.172;2023-04-24T04:48:16;11.30;99.90
20182;DHT22;10250;50.756;6.172;2023-04-24T04:50:18;11.40;99.90
20182;DHT22;10250;50.756;6.172;2023-04-24T04:52:19;11.30;99.90
20182;DHT22;10250;50.756;6.172;2023-04-24T04:54:20;11.30;99.90
20182;DHT22;10250;50.756;6.172;2023-04-24T04:56:21;11.30;99.90
20182;DHT22;10250;50.756;6.172;2023-04-24T04:58:22;11.30;99.90
20182;DHT22;10250;50.756;6.172;2023-04-24T05:00:22;11.20;99.90
20182;DHT22;10250;50.756;6.172;2023-04-24T05:02:25;11.30;99.90
20182;DHT22;10250;50.756;6.172;2023-04-24T05:04:26;11.30;99.90
20182;DHT22;10250;50.756;6.172;2023-04-24T05:06:26;11.30;99.90
20182;DHT22;10250;50.756;6.172;2023-04-24T05:08:28;11.30;99.90
20182;DHT22;10250;50.756;6.172;2023-04-24T05:10:28;11.10;99.90
20182;DHT22;10250;50.756;6.172;2023-04-24T05:12:29;11.10;99.90
20182;DHT22;10250;50.756;6.172;2023-04-24T05:14:29;11.10;99.90
20182;DHT22;10250;50.756;6.172;2023-04-24T05:16:30;11.10;1.00
20182;DHT22;10250;50.756;6.172;2023-04-24T05:18:31;11.10;1.00
20182;DHT22;10250;50.756;6.172;2023-04-24T05:20:31;11.10;1.00
20182;DHT22;10250;50.756;6.172;2023-04-24T05:22:32;11.10;1.00
20182;DHT22;10250;50.756;6.172;2023-04-24T05:24:33;11.10;1.00
20182;DHT22;10250;50.756;6.172;2023-04-24T05:26:34;11.20;1.00
20182;DHT22;10250;50.756;6.172;2023-04-24T05:28:36;11.20;1.00
20182;DHT22;10250;50.756;6.172;2023-04-24T05:30:36;11.10;1.00
20182;DHT22;10250;50.756;6.172;2023-04-24T05:32:37;11.20;99.90
20182;DHT22;10250;50.756;6.172;2023-04-24T05:34:38;11.30;1.00
20182;DHT22;10250;50.756;6.172;2023-04-24T05:36:38;11.20;1.00
20182;DHT22;10250;50.756;6.172;2023-04-24T05:38:39;11.30;1.00
20182;DHT22;10250;50.756;6.172;2023-04-24T05:40:40;11.20;1.00
20182;DHT22;10250;50.756;6.172;2023-04-24T05:42:40;11.10;99.90
20182;DHT22;10250;50.756;6.172;2023-04-24T05:44:41;11.20;1.00
20182;DHT22;10250;50.756;6.172;2023-04-24T05:46:41;11.20;1.00
20182;DHT22;10250;50.756;6.172;2023-04-24T05:48:42;11.00;1.00
20182;DHT22;10250;50.756;6.172;2023-04-24T05:50:42;11.10;1.00
20182;DHT22;10250;50.756;6.172;2023-04-24T05:52:43;11.10;1.00
20182;DHT22;10250;50.756;6.172;2023-04-24T05:54:44;11.10;1.00
20182;DHT22;10250;50.756;6.172;2023-04-24T05:56:44;11.00;1.00
20182;DHT22;10250;50.756;6.172;2023-04-24T05:58:45;10.90;1.00
20182;DHT22;10250;50.756;6.172;2023-04-24T06:00:46;11.00;1.00
20182;DHT22;10250;50.756;6.172;2023-04-24T06:02:47;11.00;1.00
20182;DHT22;10250;50.756;6.172;2023-04-24T06:04:48;11.00;1.00
20182;DHT22;10250;50.756;6.172;2023-04-24T06:06:48;11.00;1.00
20182;DHT22;10250;50.756;6.172;2023-04-24T06:08:51;11.00;1.00
20182;DHT22;10250;50.756;6.172;2023-04-24T06:10:52;11.00;1.00
20182;DHT22;10250;50.756;6.172;2023-04-24T06:12:52;11.00;1.00
20182;DHT22;10250;50.756;6.172;2023-04-24T06:14:56;10.90;1.00
20182;DHT22;10250;50.756;6.172;2023-04-24T06:16:57;11.00;1.00
20182;DHT22;10250;50.756;6.172;2023-04-24T06:18:57;11.00;1.00
20182;DHT22;10250;50.756;6.172;2023-04-24T06:20:58;10.90;1.00
20182;DHT22;10250;50.756;6.172;2023-04-24T06:22:59;11.00;1.00
20182;DHT22;10250;50.756;6.172;2023-04-24T06:25:00;10.90;1.00
20182;DHT22;10250;50.756;6.172;2023-04-24T06:27:01;11.00;1.00
20182;DHT22;10250;50.756;6.172;2023-04-24T06:29:01;11.00;1.00
20182;DHT22;10250;50.756;6.172;2023-04-24T06:31:02;11.00;1.00
20182;DHT22;10250;50.756;6.172;2023-04-24T06:33:02;10.80;99.90
20182;DHT22;10250;50.756;6.172;2023-04-24T06:35:04;10.90;39.20
20182;DHT22;10250;50.756;6.172;2023-04-24T06:37:04;10.90;1.00
20182;DHT22;10250;50.756;6.172;2023-04-24T06:39:05;11.10;1.00
20182;DHT22;10250;50.756;6.172;2023-04-24T06:41:05;11.10;1.00
20182;DHT22;10250;50.756;6.172;2023-04-24T06:43:06;11.30;1.00
20182;DHT22;10250;50.756;6.172;2023-04-24T06:45:07;11.00;1.00
20182;DHT22;10250;50.756;6.172;2023-04-24T06:47:08;11.00;1.00
20182;DHT22;10250;50.756;6.172;2023-04-24T06:49:09;11.10;1.00
20182;DHT22;10250;50.756;6.172;2023-04-24T06:51:10;11.20;1.00
20182;DHT22;10250;50.756;6.172;2023-04-24T06:53:10;11.20;1.00
20182;DHT22;10250;50.756;6.172;2023-04-24T06:55:12;11.10;1.00
20182;DHT22;10250;50.756;6.172;2023-04-24T06:57:15;10.90;1.00
20182;DHT22;10250;50.756;6.172;2023-04-24T06:59:19;10.80;1.00
20182;DHT22;10250;50.756;6.172;2023-04-24T07:01:19;10.90;1.00
20182;DHT22;10250;50.756;6.172;2023-04-24T07:03:20;10.70;1.00
20182;DHT22;10250;50.756;6.172;2023-04-24T07:05:21;10.60;99.90
20182;DHT22;10250;50.756;6.172;2023-04-24T07:07:21;10.60;99.90
20182;DHT22;10250;50.756;6.172;2023-04-24T07:09:24;10.90;99.90
20182;DHT22;10250;50.756;6.172;2023-04-24T07:11:25;10.80;99.90
20182;DHT22;10250;50.756;6.172;2023-04-24T07:13:29;10.50;1.00
20182;DHT22;10250;50.756;6.172;2023-04-24T07:15:30;10.70;1.00
20182;DHT22;10250;50.756;6.172;2023-04-24T07:17:31;10.80;1.00
20182;DHT22;10250;50.756;6.172;2023-04-24T07:19:33;10.90;99.90
20182;DHT22;10250;50.756;6.172;2023-04-24T07:21:35;10.80;99.90
20182;DHT22;10250;50.756;6.172;2023-04-24T07:23:35;10.60;1.00
20182;DHT22;10250;50.756;6.172;2023-04-24T07:25:36;10.80;99.90
20182;DHT22;10250;50.756;6.172;2023-04-24T07:27:36;10.70;99.90
20182;DHT22;10250;50.756;6.172;2023-04-24T07:29:37;10.50;99.90
20182;DHT22;10250;50.756;6.172;2023-04-24T07:31:38;10.40;1.00
20182;DHT22;10250;50.756;6.172;2023-04-24T07:33:39;10.50;1.00
20182;DHT22;10250;50.756;6.172;2023-04-24T07:35:39;10.50;1.00
20182;DHT22;10250;50.756;6.172;2023-04-24T07:37:40;10.60;99.90
20182;DHT22;10250;50.756;6.172;2023-04-24T07:39:45;10.60;99.90
20182;DHT22;10250;50.756;6.172;2023-04-24T07:41:46;10.50;99.90
20182;DHT22;10250;50.756;6.172;2023-04-24T07:43:47;10.60;99.90
20182;DHT22;10250;50.756;6.172;2023-04-24T07:45:47;10.40;99.90
20182;DHT22;10250;50.756;6.172;2023-04-24T07:47:48;10.50;99.90
20182;DHT22;10250;50.756;6.172;2023-04-24T07:49:49;10.60;69.00
20182;DHT22;10250;50.756;6.172;2023-04-24T07:51:49;10.50;94.40
20182;DHT22;10250;50.756;6.172;2023-04-24T07:53:50;10.60;99.90
20182;DHT22;10250;50.756;6.172;2023-04-24T07:55:51;10.40;99.90
20182;DHT22;10250;50.756;6.172;2023-04-24T07:57:51;10.60;99.90
20182;DHT22;10250;50.756;6.172;2023-04-24T07:59:52;10.80;93.70
20182;DHT22;10250;50.756;6.172;2023-04-24T08:01:52;10.70;1.00
20182;DHT22;10250;50.756;6.172;2023-04-24T08:03:54;10.70;1.00
20182;DHT22;10250;50.756;6.172;2023-04-24T08:05:55;10.80;15.10
20182;DHT22;10250;50.756;6.172;2023-04-24T08:07:55;10.80;1.00
20182;DHT22;10250;50.756;6.172;2023-04-24T08:09:56;10.60;99.90
20182;DHT22;10250;50.756;6.172;2023-04-24T08:11:56;10.80;99.90
20182;DHT22;10250;50.756;6.172;2023-04-24T08:13:57;10.70;86.50
20182;DHT22;10250;50.756;6.172;2023-04-24T08:15:58;10.70;91.10
20182;DHT22;10250;50.756;6.172;2023-04-24T08:17:58;10.70;58.70
20182;DHT22;10250;50.756;6.172;2023-04-24T08:19:59;10.70;99.90
20182;DHT22;10250;50.756;6.172;2023-04-24T08:22:01;10.70;99.90
20182;DHT22;10250;50.756;6.172;2023-04-24T08:24:03;10.60;1.00
20182;DHT22;10250;50.756;6.172;2023-04-24T08:26:05;10.70;1.00
20182;DHT22;10250;50.756;6.172;2023-04-24T08:28:09;10.80;1.00
20182;DHT22;10250;50.756;6.172;2023-04-24T08:30:11;11.00;99.90
20182;DHT22;10250;50.756;6.172;2023-04-24T08:32:12;11.00;86.30
20182;DHT22;10250;50.756;6.172;2023-04-24T08:34:12;10.90;99.90
20182;DHT22;10250;50.756;6.172;2023-04-24T08:36:13;10.70;99.90
20182;DHT22;10250;50.756;6.172;2023-04-24T08:38:13;10.90;99.90
20182;DHT22;10250;50.756;6.172;2023-04-24T08:40:15;10.80;99.90
20182;DHT22;10250;50.756;6.172;2023-04-24T08:42:20;10.70;1.00
20182;DHT22;10250;50.756;6.172;2023-04-24T08:44:21;10.90;99.90
20182;DHT22;10250;50.756;6.172;2023-04-24T08:46:22;10.90;99.90
20182;DHT22;10250;50.756;6.172;2023-04-24T08:48:23;10.90;99.90
20182;DHT22;10250;50.756;6.172;2023-04-24T08:50:24;11.00;99.90
20182;DHT22;10250;50.756;6.172;2023-04-24T08:52:25;11.20;31.30
20182;DHT22;10250;50.756;6.172;2023-04-24T08:54:26;11.00;14.10
20182;DHT22;10250;50.756;6.172;2023-04-24T08:56:28;10.30;1.00
20182;DHT22;10250;50.756;6.172;2023-04-24T08:58:31;9.60;1.00
20182;DHT22;10250;50.756;6.172;2023-04-24T09:00:32;9.60;1.00
20182;DHT22;10250;50.756;6.172;2023-04-24T09:02:32;10.20;99.90
20182;DHT22;10250;50.756;6.172;2023-04-24T09:04:35;10.40;99.90
20182;DHT22;10250;50.756;6.172;2023-04-24T09:06:36;10.30;99.90
20182;DHT22;10250;50.756;6.172;2023-04-24T09:08:39;10.60;1.00
20182;DHT22;10250;50.756;6.172;2023-04-24T09:10:40;10.70;1.00
20182;DHT22;10250;50.756;6.172;2023-04-24T09:12:41;11.00;1.00
20182;DHT22;10250;50.756;6.172;2023-04-24T09:14:42;10.90;99.90
20182;DHT22;10250;50.756;6.172;2023-04-24T09:16:46;10.70;99.90
20182;DHT22;10250;50.756;6.172;2023-04-24T09:18:46;10.60;99.90
20182;DHT22;10250;50.756;6.172;2023-04-24T09:21:05;10.50;99.90
20182;DHT22;10250;50.756;6.172;2023-04-24T09:23:07;10.50;1.00
20182;DHT22;10250;50.756;6.172;2023-04-24T09:25:08;10.70;99.90
20182;DHT22;10250;50.756;6.172;2023-04-24T09:27:11;10.70;99.90
20182;DHT22;10250;50.756;6.172;2023-04-24T09:29:16;10.70;1.00
20182;DHT22;10250;50.756;6.172;2023-04-24T09:31:18;10.90;1.00
20182;DHT22;10250;50.756;6.172;2023-04-24T09:33:21;10.90;99.90
20182;DHT22;10250;50.756;6.172;2023-04-24T09:35:22;11.00;99.90
20182;DHT22;10250;50.756;6.172;2023-04-24T09:37:29;10.90;99.90
20182;DHT22;10250;50.756;6.172;2023-04-24T09:39:30;11.10;6.10
20182;DHT22;10250;50.756;6.172;2023-04-24T09:41:32;11.00;1.00
20182;DHT22;10250;50.756;6.172;2023-04-24T09:43:33;11.00;99.90
20182;DHT22;10250;50.756;6.172;2023-04-24T09:45:39;11.00;1.00
20182;DHT22;10250;50.756;6.172;2023-04-24T09:47:40;11.00;1.00
20182;DHT22;10250;50.756;6.172;2023-04-24T09:49:41;10.70;1.00
20182;DHT22;10250;50.756;6.172;2023-04-24T09:51:43;10.80;1.00
20182;DHT22;10250;50.756;6.172;2023-04-24T09:53:47;10.90;1.00
20182;DHT22;10250;50.756;6.172;2023-04-24T09:55:48;11.00;79.30
20182;DHT22;10250;50.756;6.172;2023-04-24T09:57:55;11.10;70.50
20182;DHT22;10250;50.756;6.172;2023-04-24T09:59:57;10.90;81.70
20182;DHT22;10250;50.756;6.172;2023-04-24T10:01:59;11.00;99.90
20182;DHT22;10250;50.756;6.172;2023-04-24T10:04:00;11.10;1.00
20182;DHT22;10250;50.756;6.172;2023-04-24T10:06:04;11.20;1.00
20182;DHT22;10250;50.756;6.172;2023-04-24T10:08:11;11.30;1.00
20182;DHT22;10250;50.756;6.172;2023-04-24T10:10:12;11.30;1.00
20182;DHT22;10250;50.756;6.172;2023-04-24T10:12:14;11.40;1.00
20182;DHT22;10250;50.756;6.172;2023-04-24T10:14:17;11.40;99.90
20182;DHT22;10250;50.756;6.172;2023-04-24T10:16:19;11.60;1.00
20182;DHT22;10250;50.756;6.172;2023-04-24T10:18:21;11.50;99.90
20182;DHT22;10250;50.756;6.172;2023-04-24T10:20:24;11.60;99.90
20182;DHT22;10250;50.756;6.172;2023-04-24T10:22:25;11.70;99.90
20182;DHT22;10250;50.756;6.172;2023-04-24T10:24:28;11.70;99.90
20182;DHT22;10250;50.756;6.172;2023-04-24T10:26:30;11.60;1.00
20182;DHT22;10250;50.756;6.172;2023-04-24T10:28:32;11.60;1.00
20182;DHT22;10250;50.756;6.172;2023-04-24T10:30:34;11.60;1.00
20182;DHT22;10250;50.756;6.172;2023-04-24T10:32:35;11.70;70.20
20182;DHT22;10250;50.756;6.172;2023-04-24T10:34:36;11.90;99.90
20182;DHT22;10250;50.756;6.172;2023-04-24T10:36:41;11.80;1.00
20182;DHT22;10250;50.756;6.172;2023-04-24T10:38:45;11.70;1.00
20182;DHT22;10250;50.756;6.172;2023-04-24T10:40:46;11.80;1.00
20182;DHT22;10250;50.756;6.172;2023-04-24T10:42:48;11.80;1.00
20182;DHT22;10250;50.756;6.172;2023-04-24T10:44:51;11.90;1.00
20182;DHT22;10250;50.756;6.172;2023-04-24T10:46:55;11.90;1.00
20182;DHT22;10250;50.756;6.172;2023-04-24T10:48:56;12.00;1.00
20182;DHT22;10250;50.756;6.172;2023-04-24T10:50:58;12.00;1.00
20182;DHT22;10250;50.756;6.172;2023-04-24T10:53:07;11.90;1.00
20182;DHT22;10250;50.756;6.172;2023-04-24T10:55:13;11.90;1.00
20182;DHT22;10250;50.756;6.172;2023-04-24T10:59:26;12.00;1.00
20182;DHT22;10250;50.756;6.172;2023-04-24T11:01:31;12.00;1.00
20182;DHT22;10250;50.756;6.172;2023-04-24T11:03:34;12.10;1.00
20182;DHT22;10250;50.756;6.172;2023-04-24T11:05:50;12.10;1.00
20182;DHT22;10250;50.756;6.172;2023-04-24T11:08:11;12.10;1.00
20182;DHT22;10250;50.756;6.172;2023-04-24T11:10:37;12.10;1.00
20182;DHT22;10250;50.756;6.172;2023-04-24T11:12:38;12.00;1.00
20182;DHT22;10250;50.756;6.172;2023-04-24T11:16:58;11.90;1.00
20182;DHT22;10250;50.756;6.172;2023-04-24T11:19:17;11.80;1.00
20182;DHT22;10250;50.756;6.172;2023-04-24T11:21:18;11.80;1.00
20182;DHT22;10250;50.756;6.172;2023-04-24T11:23:19;11.90;1.00
20182;DHT22;10250;50.756;6.172;2023-04-24T11:25:21;11.80;1.00
20182;DHT22;10250;50.756;6.172;2023-04-24T11:27:22;11.90;1.00
20182;DHT22;10250;50.756;6.172;2023-04-24T11:32:18;12.10;1.00
20182;DHT22;10250;50.756;6.172;2023-04-24T11:34:20;12.30;1.00
20182;DHT22;10250;50.756;6.172;2023-04-24T11:36:20;12.20;1.00
20182;DHT22;10250;50.756;6.172;2023-04-24T11:38:21;12.10;1.00
20182;DHT22;10250;50.756;6.172;2023-04-24T11:40:23;12.10;1.00
20182;DHT22;10250;50.756;6.172;2023-04-24T11:42:24;12.20;1.00
20182;DHT22;10250;50.756;6.172;2023-04-24T11:44:26;12.20;99.90
20182;DHT22;10250;50.756;6.172;2023-04-24T11:46:28;12.30;99.90
20182;DHT22;10250;50.756;6.172;2023-04-24T11:48:30;12.30;99.90
20182;DHT22;10250;50.756;6.172;2023-04-24T11:50:36;12.40;99.90
20182;DHT22;10250;50.756;6.172;2023-04-24T11:52:38;12.50;99.90
20182;DHT22;10250;50.756;6.172;2023-04-24T11:54:47;12.30;99.90
20182;DHT22;10250;50.756;6.172;2023-04-24T11:56:48;12.10;99.90
20182;DHT22;10250;50.756;6.172;2023-04-24T11:58:52;12.20;99.90
20182;DHT22;10250;50.756;6.172;2023-04-24T12:00:57;12.10;99.90
20182;DHT22;10250;50.756;6.172;2023-04-24T12:03:09;11.90;99.90
20182;DHT22;10250;50.756;6.172;2023-04-24T12:05:28;11.60;99.90
20182;DHT22;10250;50.756;6.172;2023-04-24T12:07:40;11.60;99.90
20182;DHT22;10250;50.756;6.172;2023-04-24T12:09:43;11.80;99.90
20182;DHT22;10250;50.756;6.172;2023-04-24T12:11:54;11.90;99.90
20182;DHT22;10250;50.756;6.172;2023-04-24T12:13:57;12.10;99.90
20182;DHT22;10250;50.756;6.172;2023-04-24T12:15:57;12.20;99.90
20182;DHT22;10250;50.756;6.172;2023-04-24T12:17:58;12.20;99.90
20182;DHT22;10250;50.756;6.172;2023-04-24T12:20:06;12.30;99.90
20182;DHT22;10250;50.756;6.172;2023-04-24T12:22:07;12.30;99.90
20182;DHT22;10250;50.756;6.172;2023-04-24T12:24:08;12.20;99.90
20182;DHT22;10250;50.756;6.172;2023-04-24T12:26:08;12.20;99.90
20182;DHT22;10250;50.756;6.172;2023-04-24T12:28:11;12.30;99.90
20182;DHT22;10250;50.756;6.172;2023-04-24T12:30:14;12.20;99.90
20182;DHT22;10250;50.756;6.172;2023-04-24T12:32:16;12.10;99.90
20182;DHT22;10250;50.756;6.172;2023-04-24T12:34:21;12.20;99.90
20182;DHT22;10250;50.756;6.172;2023-04-24T12:36:22;12.30;99.90
20182;DHT22;10250;50.756;6.172;2023-04-24T12:38:25;12.40;99.90
20182;DHT22;10250;50.756;6.172;2023-04-24T12:40:25;12.30;99.90
20182;DHT22;10250;50.756;6.172;2023-04-24T12:42:30;12.40;99.90
20182;DHT22;10250;50.756;6.172;2023-04-24T12:44:34;12.50;99.90
20182;DHT22;10250;50.756;6.172;2023-04-24T12:46:35;12.60;99.90
20182;DHT22;10250;50.756;6.172;2023-04-24T12:48:35;12.80;99.90
20182;DHT22;10250;50.756;6.172;2023-04-24T12:50:36;12.70;99.90
20182;DHT22;10250;50.756;6.172;2023-04-24T12:52:38;12.70;99.90
20182;DHT22;10250;50.756;6.172;2023-04-24T12:54:39;12.60;90.10
20182;DHT22;10250;50.756;6.172;2023-04-24T12:56:40;12.60;83.10
20182;DHT22;10250;50.756;6.172;2023-04-24T12:58:40;12.50;64.80
20182;DHT22;10250;50.756;6.172;2023-04-24T13:00:41;12.60;64.40